createdAt,value
2019-05-01T00:00:16.315Z,59.60
2019-05-01T00:01:12.313Z,57.90
2019-05-01T00:02:11.306Z,53.20
2019-05-01T00:03:11.293Z,60.00
2019-05-01T00:04:11.287Z,60.40
2019-05-01T00:05:11.290Z,61.00
2019-05-01T00:06:11.263Z,58.00
2019-05-01T00:07:11.250Z,57.70
2019-05-01T00:08:11.247Z,58.50
2019-05-01T00:09:11.242Z,59.20
2019-05-01T00:10:11.220Z,58.30
2019-05-01T00:11:11.234Z,59.10
2019-05-01T00:12:11.199Z,61.50
2019-05-01T00:13:11.189Z,61.50
2019-05-01T00:14:11.190Z,59.20
2019-05-01T00:15:11.175Z,56.80
2019-05-01T00:16:11.155Z,59.60
2019-05-01T00:17:11.198Z,54.50
2019-05-01T00:18:11.163Z,54.10
2019-05-01T00:19:11.131Z,52.70
2019-05-01T00:20:11.115Z,53.00
2019-05-01T00:21:11.102Z,53.20
2019-05-01T00:22:11.093Z,50.90
2019-05-01T00:23:11.119Z,55.90
2019-05-01T00:24:11.071Z,56.60
2019-05-01T00:25:11.060Z,51.30
2019-05-01T00:26:11.049Z,50.80
2019-05-01T00:27:11.051Z,47.20
2019-05-01T00:28:11.059Z,50.40
2019-05-01T00:29:11.033Z,48.50
2019-05-01T00:30:11.020Z,50.40
2019-05-01T00:31:11.011Z,49.50
2019-05-01T00:32:11.000Z,57.10
2019-05-01T00:33:10.990Z,53.00
2019-05-01T00:34:10.970Z,55.20
2019-05-01T00:35:11.001Z,62.20
2019-05-01T00:36:10.942Z,60.80
2019-05-01T00:37:10.935Z,58.20
2019-05-01T00:38:10.932Z,62.50
2019-05-01T00:39:10.910Z,60.60
2019-05-01T00:40:10.900Z,60.90
2019-05-01T00:41:10.907Z,67.30
2019-05-01T00:42:10.881Z,63.10
2019-05-01T00:43:10.880Z,60.90
2019-05-01T00:44:10.855Z,63.00
2019-05-01T00:45:10.851Z,61.80
2019-05-01T00:46:10.863Z,64.20
2019-05-01T00:47:10.843Z,71.10
2019-05-01T00:48:10.814Z,76.70
2019-05-01T00:49:10.807Z,69.40
2019-05-01T00:50:10.794Z,67.60
2019-05-01T00:51:10.800Z,62.90
2019-05-01T00:52:10.774Z,68.00
2019-05-01T00:53:10.776Z,66.60
2019-05-01T00:54:10.749Z,62.30
2019-05-01T00:55:10.741Z,64.20
2019-05-01T00:56:10.733Z,60.50
2019-05-01T00:57:10.721Z,72.60
2019-05-01T00:58:10.702Z,68.60
2019-05-01T00:59:10.712Z,65.50
2019-05-01T01:00:10.682Z,59.70
2019-05-01T01:01:10.681Z,69.90
2019-05-01T01:02:10.658Z,69.40
2019-05-01T01:03:10.660Z,64.20
2019-05-01T01:04:10.639Z,63.40
2019-05-01T01:05:10.648Z,71.40
2019-05-01T01:06:10.614Z,74.90
2019-05-01T01:07:10.607Z,72.20
2019-05-01T01:08:10.592Z,74.40
2019-05-01T01:09:10.583Z,76.10
2019-05-01T01:10:10.573Z,77.60
2019-05-01T01:11:10.614Z,85.00
2019-05-01T01:12:10.549Z,84.60
2019-05-01T01:13:10.545Z,85.30
2019-05-01T01:14:10.526Z,80.80
2019-05-01T01:15:10.521Z,80.30
2019-05-01T01:16:10.517Z,78.80
2019-05-01T01:17:10.510Z,78.90
2019-05-01T01:18:10.482Z,78.90
2019-05-01T01:19:10.470Z,85.40
2019-05-01T01:20:10.465Z,87.40
2019-05-01T01:21:10.460Z,79.50
2019-05-01T01:22:10.440Z,83.00
2019-05-01T01:23:10.489Z,77.60
2019-05-01T01:24:10.421Z,96.70
2019-05-01T01:25:10.409Z,95.10
2019-05-01T01:26:10.417Z,90.70
2019-05-01T01:27:10.382Z,84.70
2019-05-01T01:28:10.388Z,87.10
2019-05-01T01:29:10.381Z,78.00
2019-05-01T01:30:10.354Z,78.90
2019-05-01T01:31:10.340Z,86.10
2019-05-01T01:32:10.330Z,90.60
2019-05-01T01:33:10.316Z,85.40
2019-05-01T01:34:10.338Z,70.60
2019-05-01T01:35:10.311Z,72.50
2019-05-01T01:36:10.281Z,75.10
2019-05-01T01:37:10.290Z,74.60
2019-05-01T01:38:10.269Z,74.20
2019-05-01T01:39:10.255Z,70.70
2019-05-01T01:40:10.241Z,72.00
2019-05-01T01:41:10.245Z,71.50
2019-05-01T01:42:10.219Z,78.00
2019-05-01T01:43:10.228Z,75.50
2019-05-01T01:44:10.221Z,76.30
2019-05-01T01:45:10.185Z,82.10
2019-05-01T01:46:10.172Z,79.80
2019-05-01T01:47:10.197Z,76.40
2019-05-01T01:48:10.165Z,89.50
2019-05-01T01:49:10.139Z,85.50
2019-05-01T01:50:10.136Z,87.70
2019-05-01T01:51:10.119Z,78.60
2019-05-01T01:52:10.104Z,83.10
2019-05-01T01:53:10.127Z,85.60
2019-05-01T01:54:10.092Z,83.10
2019-05-01T01:55:10.080Z,76.70
2019-05-01T01:56:10.103Z,77.10
2019-05-01T01:57:10.070Z,85.60
2019-05-01T01:58:10.049Z,74.80
2019-05-01T01:59:10.053Z,75.80
2019-05-01T02:00:10.026Z,76.30
2019-05-01T02:01:10.047Z,81.70
2019-05-01T02:02:10.016Z,77.70
2019-05-01T02:03:09.989Z,77.10
2019-05-01T02:04:09.982Z,77.70
2019-05-01T02:05:09.993Z,83.20
2019-05-01T02:06:09.978Z,75.30
2019-05-01T02:07:09.949Z,73.80
2019-05-01T02:08:09.956Z,73.20
2019-05-01T02:09:09.928Z,78.90
2019-05-01T02:10:09.928Z,78.60
2019-05-01T02:11:09.919Z,72.30
2019-05-01T02:12:09.903Z,74.90
2019-05-01T02:13:09.876Z,76.60
2019-05-01T02:14:09.862Z,65.10
2019-05-01T02:15:09.849Z,73.10
2019-05-01T02:16:09.842Z,62.50
2019-05-01T02:17:09.848Z,68.20
2019-05-01T02:18:09.819Z,70.50
2019-05-01T02:19:09.808Z,77.10
2019-05-01T02:20:09.799Z,65.40
2019-05-01T02:21:09.793Z,63.20
2019-05-01T02:22:09.773Z,65.30
2019-05-01T02:23:09.784Z,66.50
2019-05-01T02:24:09.749Z,64.70
2019-05-01T02:25:09.752Z,65.80
2019-05-01T02:26:09.727Z,62.80
2019-05-01T02:27:09.725Z,66.20
2019-05-01T02:28:09.710Z,72.40
2019-05-01T02:29:09.722Z,75.40
2019-05-01T02:30:09.687Z,68.30
2019-05-01T02:31:26.675Z,70.30
2019-05-01T02:32:10.680Z,64.50
2019-05-01T02:33:09.656Z,69.30
2019-05-01T02:34:09.644Z,70.00
2019-05-01T02:35:09.650Z,65.90
2019-05-01T02:36:09.633Z,70.50
2019-05-01T02:37:09.605Z,64.70
2019-05-01T02:38:09.596Z,57.20
2019-05-01T02:39:09.583Z,58.10
2019-05-01T02:40:09.576Z,66.20
2019-05-01T02:41:09.582Z,64.10
2019-05-01T02:42:09.547Z,60.40
2019-05-01T02:43:09.542Z,57.90
2019-05-01T02:44:09.556Z,60.70
2019-05-01T02:45:09.515Z,59.10
2019-05-01T02:46:09.515Z,66.40
2019-05-01T02:47:09.514Z,65.60
2019-05-01T02:48:09.486Z,72.40
2019-05-01T02:49:09.489Z,72.70
2019-05-01T02:50:09.464Z,66.20
2019-05-01T02:51:09.454Z,73.40
2019-05-01T02:52:09.439Z,74.50
2019-05-01T02:53:09.448Z,73.50
2019-05-01T02:54:09.415Z,69.60
2019-05-01T02:55:09.415Z,65.70
2019-05-01T02:56:09.408Z,67.00
2019-05-01T02:57:09.391Z,69.60
2019-05-01T02:58:09.379Z,81.60
2019-05-01T02:59:09.392Z,71.60
2019-05-01T03:00:09.351Z,75.80
2019-05-01T03:01:09.335Z,75.60
2019-05-01T03:02:09.328Z,80.80
2019-05-01T03:03:09.322Z,88.80
2019-05-01T03:04:09.312Z,79.10
2019-05-01T03:05:09.308Z,89.30
2019-05-01T03:06:09.291Z,90.80
2019-05-01T03:07:09.270Z,79.90
2019-05-01T03:08:09.268Z,71.30
2019-05-01T03:09:09.276Z,69.10
2019-05-01T03:10:10.054Z,71.50
2019-05-01T03:11:09.243Z,84.90
2019-05-01T03:12:09.223Z,79.00
2019-05-01T03:13:09.224Z,84.70
2019-05-01T03:14:09.193Z,73.50
2019-05-01T03:15:09.182Z,81.50
2019-05-01T03:16:09.175Z,72.60
2019-05-01T03:17:09.178Z,72.80
2019-05-01T03:18:09.161Z,77.10
2019-05-01T03:19:09.146Z,84.20
2019-05-01T03:20:09.127Z,83.50
2019-05-01T03:21:09.118Z,78.90
2019-05-01T03:22:09.105Z,87.50
2019-05-01T03:23:09.116Z,73.20
2019-05-01T03:24:09.115Z,82.50
2019-05-01T03:25:09.085Z,79.50
2019-05-01T03:26:09.084Z,84.30
2019-05-01T03:27:09.065Z,70.00
2019-05-01T03:28:09.048Z,72.80
2019-05-01T03:29:09.047Z,74.10
2019-05-01T03:30:09.021Z,82.00
2019-05-01T03:31:09.013Z,76.50
2019-05-01T03:32:19.245Z,71.40
2019-05-01T03:33:09.979Z,70.10
2019-05-01T03:34:08.971Z,68.00
2019-05-01T03:35:08.977Z,76.60
2019-05-01T03:36:08.955Z,86.20
2019-05-01T03:37:08.936Z,81.40
2019-05-01T03:38:08.935Z,77.70
2019-05-01T03:39:08.924Z,78.20
2019-05-01T03:40:12.124Z,69.30
2019-05-01T03:41:08.917Z,69.10
2019-05-01T03:42:08.883Z,66.00
2019-05-01T03:43:08.894Z,63.90
2019-05-01T03:44:08.885Z,63.10
2019-05-01T03:45:08.851Z,63.00
2019-05-01T03:46:08.843Z,60.00
2019-05-01T03:47:08.845Z,59.30
2019-05-01T03:48:08.821Z,60.70
2019-05-01T03:49:08.801Z,60.30
2019-05-01T03:50:08.797Z,62.50
2019-05-01T03:51:08.791Z,57.70
2019-05-01T03:52:08.767Z,66.50
2019-05-01T03:53:08.777Z,63.60
2019-05-01T03:54:08.748Z,63.90
2019-05-01T03:55:08.734Z,60.80
2019-05-01T03:56:08.722Z,59.60
2019-05-01T03:57:12.496Z,67.70
2019-05-01T03:58:08.707Z,67.60
2019-05-01T03:59:08.713Z,69.10
2019-05-01T04:00:08.694Z,70.00
2019-05-01T04:01:08.674Z,71.90
2019-05-01T04:02:08.657Z,77.10
2019-05-01T04:03:08.654Z,71.20
2019-05-01T04:04:08.641Z,73.50
2019-05-01T04:05:08.645Z,74.50
2019-05-01T04:06:08.613Z,78.00
2019-05-01T04:07:08.603Z,83.40
2019-05-01T04:08:08.590Z,79.80
2019-05-01T04:09:08.588Z,84.30
2019-05-01T04:10:08.576Z,83.40
2019-05-01T04:11:08.595Z,78.90
2019-05-01T04:12:08.544Z,74.90
2019-05-01T04:13:08.535Z,71.70
2019-05-01T04:14:08.531Z,77.30
2019-05-01T04:15:08.537Z,80.10
2019-05-01T04:16:08.510Z,80.50
2019-05-01T04:17:08.532Z,84.40
2019-05-01T04:18:08.481Z,88.90
2019-05-01T04:19:08.470Z,86.10
2019-05-01T04:20:08.462Z,94.00
2019-05-01T04:21:08.446Z,105.70
2019-05-01T04:22:08.438Z,94.10
2019-05-01T04:23:08.440Z,93.10
2019-05-01T04:24:08.420Z,96.50
2019-05-01T04:25:08.419Z,98.10
2019-05-01T04:26:08.390Z,99.00
2019-05-01T04:27:08.414Z,105.30
2019-05-01T04:28:08.403Z,101.80
2019-05-01T04:29:08.384Z,120.10
2019-05-01T04:30:08.355Z,112.60
2019-05-01T04:31:08.340Z,118.30
2019-05-01T04:32:08.326Z,116.00
2019-05-01T04:33:08.343Z,112.40
2019-05-01T04:34:08.306Z,116.70
2019-05-01T04:35:08.306Z,122.00
2019-05-01T04:36:08.281Z,110.80
2019-05-01T04:37:08.285Z,122.60
2019-05-01T04:38:08.296Z,120.90
2019-05-01T04:39:08.257Z,133.80
2019-05-01T04:40:08.239Z,121.90
2019-05-01T04:41:08.254Z,145.20
2019-05-01T04:42:08.220Z,139.20
2019-05-01T04:43:08.223Z,143.70
2019-05-01T04:44:08.213Z,130.00
2019-05-01T04:45:08.183Z,132.30
2019-05-01T04:46:08.172Z,140.30
2019-05-01T04:47:08.183Z,131.20
2019-05-01T04:48:08.154Z,151.90
2019-05-01T04:49:08.140Z,133.40
2019-05-01T04:50:08.128Z,138.80
2019-05-01T04:51:08.133Z,149.10
2019-05-01T04:52:08.134Z,223.40
2019-05-01T04:53:08.111Z,411.00
2019-05-01T04:54:08.093Z,413.10
2019-05-01T04:55:08.074Z,288.30
2019-05-01T04:56:08.084Z,315.50
2019-05-01T04:57:08.079Z,409.80
2019-05-01T04:58:08.046Z,567.70
2019-05-01T04:59:08.095Z,324.60
2019-05-01T05:00:08.073Z,603.20
2019-05-01T05:01:08.010Z,312.00
2019-05-01T05:02:08.003Z,400.40
2019-05-01T05:03:07.991Z,484.90
2019-05-01T05:04:07.979Z,917.20
2019-05-01T05:05:08.006Z,491.90
2019-05-01T05:06:07.958Z,791.40
2019-05-01T05:07:07.955Z,358.90
2019-05-01T05:08:07.930Z,420.00
2019-05-01T05:09:07.926Z,382.80
2019-05-01T05:10:07.926Z,347.10
2019-05-01T05:11:07.925Z,369.40
2019-05-01T05:12:07.888Z,509.00
2019-05-01T05:13:07.885Z,427.50
2019-05-01T05:14:07.868Z,431.10
2019-05-01T05:15:07.860Z,573.40
2019-05-01T05:16:07.848Z,373.80
2019-05-01T05:17:07.856Z,443.90
2019-05-01T05:18:07.825Z,445.60
2019-05-01T05:19:07.820Z,418.20
2019-05-01T05:20:07.803Z,409.40
2019-05-01T05:21:07.791Z,309.80
2019-05-01T05:22:07.781Z,392.00
2019-05-01T05:23:07.792Z,575.20
2019-05-01T05:24:07.769Z,891.90
2019-05-01T05:25:07.751Z,768.40
2019-05-01T05:26:07.738Z,562.00
2019-05-01T05:27:07.726Z,795.40
2019-05-01T05:28:07.715Z,397.10
2019-05-01T05:29:07.729Z,472.10
2019-05-01T05:30:07.709Z,466.00
2019-05-01T05:31:07.690Z,618.70
2019-05-01T05:32:07.672Z,658.90
2019-05-01T05:33:17.759Z,761.80
2019-05-01T05:34:08.667Z,740.70
2019-05-01T05:35:07.650Z,361.60
2019-05-01T05:36:07.633Z,444.10
2019-05-01T05:37:07.623Z,988.40
2019-05-01T05:38:07.617Z,671.70
2019-05-01T05:39:07.607Z,698.90
2019-05-01T05:40:07.614Z,760.10
2019-05-01T05:41:07.580Z,477.50
2019-05-01T05:42:07.570Z,578.20
2019-05-01T05:43:07.557Z,534.90
2019-05-01T05:44:07.548Z,510.00
2019-05-01T05:45:07.540Z,602.20
2019-05-01T05:46:07.572Z,508.90
2019-05-01T05:47:07.539Z,560.20
2019-05-01T05:48:07.520Z,383.90
2019-05-01T05:49:07.509Z,370.60
2019-05-01T05:50:07.490Z,334.20
2019-05-01T05:51:07.477Z,348.10
2019-05-01T05:52:07.491Z,474.70
2019-05-01T05:53:07.457Z,315.90
2019-05-01T05:54:07.450Z,399.20
2019-05-01T05:55:07.432Z,550.50
2019-05-01T05:56:07.424Z,345.30
2019-05-01T05:57:07.422Z,351.20
2019-05-01T05:58:07.421Z,271.20
2019-05-01T05:59:07.393Z,310.00
2019-05-01T06:00:07.385Z,312.10
2019-05-01T06:01:07.377Z,420.70
2019-05-01T06:02:07.365Z,262.00
2019-05-01T06:03:07.352Z,350.90
2019-05-01T06:04:07.359Z,323.10
2019-05-01T06:05:07.332Z,308.10
2019-05-01T06:06:07.325Z,282.70
2019-05-01T06:07:07.315Z,283.60
2019-05-01T06:08:07.299Z,280.70
2019-05-01T06:09:09.057Z,284.60
2019-05-01T06:10:08.293Z,350.70
2019-05-01T06:11:07.272Z,377.30
2019-05-01T06:12:08.980Z,252.40
2019-05-01T06:13:07.248Z,295.90
2019-05-01T06:14:07.256Z,281.40
2019-05-01T06:15:07.667Z,266.20
2019-05-01T06:16:07.239Z,277.40
2019-05-01T06:17:07.206Z,339.00
2019-05-01T06:18:07.202Z,285.00
2019-05-01T06:19:09.737Z,277.80
2019-05-01T06:20:08.172Z,287.00
2019-05-01T06:21:07.162Z,318.50
2019-05-01T06:22:10.182Z,357.90
2019-05-01T06:23:07.143Z,445.40
2019-05-01T06:24:07.164Z,493.70
2019-05-01T06:25:07.127Z,615.10
2019-05-01T06:26:07.117Z,371.50
2019-05-01T06:27:08.812Z,376.90
2019-05-01T06:28:08.110Z,336.70
2019-05-01T06:29:07.098Z,376.60
2019-05-01T06:30:11.019Z,360.30
2019-05-01T06:31:08.054Z,474.80
2019-05-01T06:32:07.045Z,764.20
2019-05-01T06:33:09.542Z,502.20
2019-05-01T06:34:07.044Z,407.20
2019-05-01T06:35:07.013Z,369.60
2019-05-01T06:36:08.797Z,376.00
2019-05-01T06:37:06.988Z,331.00
2019-05-01T06:38:06.983Z,425.70
2019-05-01T06:39:11.645Z,481.80
2019-05-01T06:40:08.001Z,380.40
2019-05-01T06:41:06.943Z,312.30
2019-05-01T06:42:09.894Z,302.50
2019-05-01T06:43:07.920Z,420.30
2019-05-01T06:44:07.529Z,327.20
2019-05-01T06:45:06.902Z,409.20
2019-05-01T06:46:06.902Z,346.30
2019-05-01T06:47:06.876Z,380.90
2019-05-01T06:48:06.861Z,294.80
2019-05-01T06:49:07.166Z,368.60
2019-05-01T06:50:07.554Z,474.40
2019-05-01T06:51:06.832Z,336.70
2019-05-01T06:52:06.852Z,263.20
2019-05-01T06:53:06.809Z,270.30
2019-05-01T06:54:11.484Z,245.30
2019-05-01T06:55:07.783Z,226.90
2019-05-01T06:56:06.774Z,199.00
2019-05-01T06:57:06.769Z,215.60
2019-05-01T06:58:06.771Z,237.90
2019-05-01T06:59:06.742Z,236.10
2019-05-01T07:00:08.189Z,273.50
2019-05-01T07:01:06.716Z,350.10
2019-05-01T07:02:06.711Z,288.30
2019-05-01T07:03:10.486Z,457.20
2019-05-01T07:04:06.699Z,286.30
2019-05-01T07:05:09.203Z,248.30
2019-05-01T07:06:14.129Z,219.30
2019-05-01T07:07:24.015Z,290.00
2019-05-01T07:08:07.637Z,343.60
2019-05-01T07:09:06.985Z,257.30
2019-05-01T07:10:06.635Z,208.00
2019-05-01T07:11:06.601Z,309.50
2019-05-01T07:12:06.596Z,265.90
2019-05-01T07:13:06.709Z,252.40
2019-05-01T07:14:06.665Z,211.80
2019-05-01T07:15:06.560Z,228.90
2019-05-01T07:16:06.566Z,226.90
2019-05-01T07:17:09.054Z,259.70
2019-05-01T07:18:07.535Z,256.80
2019-05-01T07:19:07.007Z,251.80
2019-05-01T07:20:06.512Z,287.00
2019-05-01T07:21:06.489Z,210.70
2019-05-01T07:22:07.418Z,212.80
2019-05-01T07:23:06.467Z,251.40
2019-05-01T07:24:06.456Z,257.60
2019-05-01T07:25:06.446Z,205.40
2019-05-01T07:26:09.988Z,224.70
2019-05-01T07:27:07.437Z,220.50
2019-05-01T07:28:06.408Z,213.20
2019-05-01T07:29:09.894Z,234.40
2019-05-01T07:30:06.387Z,227.20
2019-05-01T07:31:06.391Z,238.00
2019-05-01T07:32:07.496Z,196.40
2019-05-01T07:33:06.371Z,222.90
2019-05-01T07:34:16.029Z,210.60
2019-05-01T07:35:07.329Z,259.60
2019-05-01T07:36:07.569Z,186.70
2019-05-01T07:37:08.616Z,167.60
2019-05-01T07:38:06.318Z,216.50
2019-05-01T07:39:09.801Z,171.20
2019-05-01T07:40:07.274Z,185.30
2019-05-01T07:41:06.264Z,180.30
2019-05-01T07:42:07.793Z,164.70
2019-05-01T07:43:06.239Z,169.80
2019-05-01T07:44:06.248Z,165.10
2019-05-01T07:45:08.343Z,171.10
2019-05-01T07:46:06.216Z,175.00
2019-05-01T07:47:06.205Z,169.80
2019-05-01T07:48:06.879Z,163.60
2019-05-01T07:49:06.174Z,166.70
2019-05-01T07:50:06.161Z,162.00
2019-05-01T07:51:06.942Z,164.60
2019-05-01T07:52:06.138Z,155.50
2019-05-01T07:53:06.125Z,155.40
2019-05-01T07:54:08.864Z,153.50
2019-05-01T07:55:06.105Z,156.50
2019-05-01T07:56:06.095Z,149.50
2019-05-01T07:57:06.110Z,144.30
2019-05-01T07:58:10.444Z,162.40
2019-05-01T07:59:07.054Z,150.70
2019-05-01T08:00:08.376Z,145.30
2019-05-01T08:01:06.029Z,152.90
2019-05-01T08:02:06.016Z,151.30
2019-05-01T08:03:07.148Z,149.30
2019-05-01T08:04:05.994Z,150.80
2019-05-01T08:05:09.946Z,147.20
2019-05-01T08:06:06.966Z,151.20
2019-05-01T08:07:05.959Z,150.10
2019-05-01T08:08:07.954Z,150.50
2019-05-01T08:09:05.948Z,148.00
2019-05-01T08:10:05.929Z,141.60
2019-05-01T08:11:09.955Z,143.50
2019-05-01T08:12:05.897Z,143.50
2019-05-01T08:13:05.883Z,141.90
2019-05-01T08:14:07.631Z,150.60
2019-05-01T08:15:05.878Z,145.10
2019-05-01T08:16:07.037Z,153.00
2019-05-01T08:17:05.834Z,144.10
2019-05-01T08:18:05.835Z,148.50
2019-05-01T08:19:05.963Z,143.90
2019-05-01T08:20:09.945Z,143.20
2019-05-01T08:21:06.806Z,153.30
2019-05-01T08:22:05.782Z,155.00
2019-05-01T08:23:07.634Z,164.10
2019-05-01T08:24:08.602Z,160.60
2019-05-01T08:25:05.742Z,158.30
2019-05-01T08:26:08.819Z,162.60
2019-05-01T08:27:05.746Z,156.50
2019-05-01T08:28:05.709Z,156.30
2019-05-01T08:29:06.965Z,140.40
2019-05-01T08:30:05.681Z,143.60
2019-05-01T08:31:05.681Z,142.60
2019-05-01T08:32:05.660Z,146.50
2019-05-01T08:33:05.669Z,150.50
2019-05-01T08:34:05.649Z,140.00
2019-05-01T08:35:05.621Z,140.30
2019-05-01T08:36:06.701Z,139.40
2019-05-01T08:37:06.695Z,145.10
2019-05-01T08:38:05.584Z,140.20
2019-05-01T08:39:09.214Z,145.10
2019-05-01T08:40:05.564Z,137.80
2019-05-01T08:41:05.551Z,140.40
2019-05-01T08:42:07.036Z,143.60
2019-05-01T08:43:05.529Z,136.70
2019-05-01T08:44:05.516Z,140.80
2019-05-01T08:45:06.927Z,142.80
2019-05-01T08:46:05.494Z,144.20
2019-05-01T08:47:05.487Z,142.70
2019-05-01T08:48:05.475Z,143.40
2019-05-01T08:49:06.854Z,146.00
2019-05-01T08:50:06.476Z,150.80
2019-05-01T08:51:05.437Z,145.80
2019-05-01T08:52:12.533Z,137.90
2019-05-01T08:53:06.414Z,135.20
2019-05-01T08:54:05.403Z,134.80
2019-05-01T08:55:09.299Z,138.60
2019-05-01T08:56:06.398Z,137.80
2019-05-01T08:57:07.842Z,145.60
2019-05-01T08:58:08.728Z,147.40
2019-05-01T08:59:06.361Z,146.70
2019-05-01T09:00:05.339Z,147.90
2019-05-01T09:01:05.321Z,140.80
2019-05-01T09:02:09.391Z,138.80
2019-05-01T09:03:08.563Z,137.80
2019-05-01T09:04:12.670Z,133.10
2019-05-01T09:05:07.149Z,128.20
2019-05-01T09:06:06.267Z,128.00
2019-05-01T09:07:05.262Z,123.30
2019-05-01T09:08:05.263Z,124.80
2019-05-01T09:09:08.340Z,128.80
2019-05-01T09:10:05.221Z,127.30
2019-05-01T09:11:05.211Z,119.30
2019-05-01T09:12:06.850Z,122.00
2019-05-01T09:13:06.204Z,123.10
2019-05-01T09:14:05.179Z,132.30
2019-05-01T09:15:07.165Z,137.20
2019-05-01T09:16:06.151Z,135.40
2019-05-01T09:17:05.156Z,128.10
2019-05-01T09:18:05.132Z,127.70
2019-05-01T09:19:05.136Z,127.50
2019-05-01T09:20:05.105Z,133.10
2019-05-01T09:21:05.097Z,132.20
2019-05-01T09:22:05.087Z,135.10
2019-05-01T09:23:05.118Z,134.90
2019-05-01T09:24:05.065Z,130.70
2019-05-01T09:25:05.067Z,136.00
2019-05-01T09:26:06.276Z,133.20
2019-05-01T09:27:06.034Z,131.00
2019-05-01T09:28:06.036Z,130.60
2019-05-01T09:29:05.007Z,126.70
2019-05-01T09:30:05.001Z,128.20
2019-05-01T09:31:05.002Z,127.90
2019-05-01T09:32:09.694Z,127.40
2019-05-01T09:33:05.977Z,128.50
2019-05-01T09:34:04.949Z,129.60
2019-05-01T09:35:15.147Z,130.60
2019-05-01T09:36:05.948Z,125.50
2019-05-01T09:37:04.917Z,133.00
2019-05-01T09:38:04.902Z,129.60
2019-05-01T09:39:04.893Z,126.70
2019-05-01T09:40:09.079Z,125.30
2019-05-01T09:41:05.871Z,124.10
2019-05-01T09:42:06.644Z,131.60
2019-05-01T09:43:04.851Z,123.60
2019-05-01T09:44:05.857Z,125.20
2019-05-01T09:45:05.827Z,123.10
2019-05-01T09:46:04.826Z,126.00
2019-05-01T09:47:04.803Z,127.30
2019-05-01T09:48:04.810Z,125.60
2019-05-01T09:49:04.783Z,125.50
2019-05-01T09:50:04.773Z,124.30
2019-05-01T09:51:05.534Z,125.80
2019-05-01T09:52:04.743Z,123.60
2019-05-01T09:53:04.742Z,126.70
2019-05-01T09:54:05.636Z,131.10
2019-05-01T09:55:04.730Z,132.30
2019-05-01T09:56:07.667Z,129.20
2019-05-01T09:57:04.693Z,127.60
2019-05-01T09:58:04.680Z,129.80
2019-05-01T09:59:04.666Z,126.30
2019-05-01T10:00:04.679Z,125.00
2019-05-01T10:01:04.645Z,122.70
2019-05-01T10:02:07.946Z,126.50
2019-05-01T10:03:04.623Z,125.10
2019-05-01T10:04:05.703Z,124.60
2019-05-01T10:05:06.729Z,122.00
2019-05-01T10:06:04.606Z,119.10
2019-05-01T10:07:04.579Z,119.40
2019-05-01T10:08:05.497Z,116.00
2019-05-01T10:09:04.556Z,116.20
2019-05-01T10:10:04.547Z,116.70
2019-05-01T10:11:05.236Z,119.10
2019-05-01T10:12:04.538Z,122.10
2019-05-01T10:13:04.513Z,114.10
2019-05-01T10:14:04.502Z,118.50
2019-05-01T10:15:04.491Z,119.40
2019-05-01T10:16:04.476Z,115.90
2019-05-01T10:17:04.467Z,117.50
2019-05-01T10:18:04.480Z,115.10
2019-05-01T10:19:04.450Z,116.10
2019-05-01T10:20:04.436Z,115.10
2019-05-01T10:21:04.424Z,118.20
2019-05-01T10:22:04.414Z,112.70
2019-05-01T10:23:07.779Z,112.50
2019-05-01T10:24:05.411Z,116.10
2019-05-01T10:25:08.510Z,116.30
2019-05-01T10:26:05.364Z,113.30
2019-05-01T10:27:04.353Z,114.60
2019-05-01T10:28:07.245Z,120.30
2019-05-01T10:29:05.337Z,114.80
2019-05-01T10:30:04.337Z,119.50
2019-05-01T10:31:06.939Z,114.30
2019-05-01T10:32:05.301Z,116.00
2019-05-01T10:33:04.285Z,117.90
2019-05-01T10:34:07.655Z,115.60
2019-05-01T10:35:04.264Z,113.00
2019-05-01T10:36:04.274Z,117.40
2019-05-01T10:37:04.241Z,111.90
2019-05-01T10:38:04.721Z,117.00
2019-05-01T10:39:04.216Z,111.90
2019-05-01T10:40:04.213Z,115.40
2019-05-01T10:41:08.691Z,112.40
2019-05-01T10:42:05.200Z,119.00
2019-05-01T10:43:04.172Z,115.80
2019-05-01T10:44:04.190Z,116.60
2019-05-01T10:45:04.151Z,114.80
2019-05-01T10:46:04.143Z,115.70
2019-05-01T10:47:04.130Z,119.50
2019-05-01T10:48:04.140Z,122.50
2019-05-01T10:49:04.105Z,117.90
2019-05-01T10:50:04.091Z,118.70
2019-05-01T10:51:04.086Z,116.00
2019-05-01T10:52:13.950Z,118.30
2019-05-01T10:53:05.087Z,115.10
2019-05-01T10:54:04.067Z,118.40
2019-05-01T10:55:04.045Z,117.70
2019-05-01T10:56:04.026Z,111.40
2019-05-01T10:57:04.643Z,112.80
2019-05-01T10:58:04.017Z,111.20
2019-05-01T10:59:04.017Z,115.30
2019-05-01T11:00:03.986Z,117.30
2019-05-01T11:01:03.977Z,117.60
2019-05-01T11:02:03.966Z,113.80
2019-05-01T11:03:03.951Z,115.70
2019-05-01T11:04:03.947Z,107.80
2019-05-01T11:05:03.952Z,110.30
2019-05-01T11:06:03.919Z,111.20
2019-05-01T11:07:03.913Z,110.70
2019-05-01T11:08:03.904Z,103.40
2019-05-01T11:09:03.894Z,106.60
2019-05-01T11:10:03.928Z,104.10
2019-05-01T11:11:03.883Z,101.10
2019-05-01T11:12:03.860Z,98.00
2019-05-01T11:13:03.844Z,96.50
2019-05-01T11:14:03.834Z,102.80
2019-05-01T11:15:03.826Z,106.20
2019-05-01T11:16:03.813Z,103.90
2019-05-01T11:17:03.822Z,101.30
2019-05-01T11:18:03.793Z,102.90
2019-05-01T11:19:03.791Z,101.40
2019-05-01T11:20:03.773Z,104.30
2019-05-01T11:21:03.758Z,107.90
2019-05-01T11:22:03.750Z,106.20
2019-05-01T11:23:03.758Z,109.10
2019-05-01T11:24:03.734Z,108.50
2019-05-01T11:25:03.719Z,106.10
2019-05-01T11:26:03.710Z,101.90
2019-05-01T11:27:03.701Z,107.30
2019-05-01T11:28:03.692Z,103.40
2019-05-01T11:29:03.704Z,98.30
2019-05-01T11:30:03.669Z,100.90
2019-05-01T11:31:03.664Z,95.50
2019-05-01T11:32:03.650Z,103.10
2019-05-01T11:33:03.637Z,99.40
2019-05-01T11:34:03.628Z,99.00
2019-05-01T11:35:03.632Z,93.00
2019-05-01T11:36:09.792Z,93.60
2019-05-01T11:37:04.591Z,92.70
2019-05-01T11:38:03.583Z,95.20
2019-05-01T11:39:03.578Z,97.70
2019-05-01T11:40:03.558Z,91.30
2019-05-01T11:41:03.576Z,92.20
2019-05-01T11:42:03.542Z,97.60
2019-05-01T11:43:03.526Z,96.70
2019-05-01T11:44:03.515Z,100.10
2019-05-01T11:45:03.502Z,98.30
2019-05-01T11:46:03.498Z,101.20
2019-05-01T11:47:03.505Z,96.00
2019-05-01T11:48:03.473Z,96.70
2019-05-01T11:49:03.466Z,94.60
2019-05-01T11:50:03.459Z,90.80
2019-05-01T11:51:03.441Z,92.50
2019-05-01T11:52:03.434Z,93.60
2019-05-01T11:53:03.438Z,90.20
2019-05-01T11:54:03.405Z,88.40
2019-05-01T11:55:03.393Z,90.40
2019-05-01T11:56:03.388Z,90.90
2019-05-01T11:57:03.376Z,91.00
2019-05-01T11:58:03.376Z,94.70
2019-05-01T11:59:03.378Z,93.50
2019-05-01T12:00:03.344Z,93.60
2019-05-01T12:01:03.328Z,87.40
2019-05-01T12:02:03.325Z,84.00
2019-05-01T12:03:03.304Z,87.00
2019-05-01T12:04:03.296Z,91.80
2019-05-01T12:05:03.308Z,86.00
2019-05-01T12:06:03.270Z,84.10
2019-05-01T12:07:03.264Z,87.90
2019-05-01T12:08:03.252Z,82.40
2019-05-01T12:09:03.239Z,80.70
2019-05-01T12:10:03.228Z,84.20
2019-05-01T12:11:03.245Z,80.60
2019-05-01T12:12:03.223Z,82.20
2019-05-01T12:13:03.192Z,77.30
2019-05-01T12:14:03.182Z,80.90
2019-05-01T12:15:03.192Z,81.70
2019-05-01T12:16:03.167Z,79.60
2019-05-01T12:17:03.164Z,80.10
2019-05-01T12:18:03.146Z,75.90
2019-05-01T12:19:03.130Z,80.60
2019-05-01T12:20:03.118Z,79.30
2019-05-01T12:21:03.111Z,77.80
2019-05-01T12:22:03.099Z,80.90
2019-05-01T12:23:03.100Z,76.80
2019-05-01T12:24:03.127Z,75.80
2019-05-01T12:25:03.080Z,82.00
2019-05-01T12:26:03.063Z,77.40
2019-05-01T12:27:03.040Z,74.10
2019-05-01T12:28:03.029Z,73.10
2019-05-01T12:29:03.037Z,73.10
2019-05-01T12:30:03.004Z,76.30
2019-05-01T12:31:03.000Z,75.20
2019-05-01T12:32:02.982Z,83.70
2019-05-01T12:33:02.971Z,84.20
2019-05-01T12:34:02.964Z,86.30
2019-05-01T12:35:02.970Z,84.90
2019-05-01T12:36:02.943Z,85.40
2019-05-01T12:37:02.930Z,89.00
2019-05-01T12:38:02.919Z,85.10